Time;durP1;ratioP1;P1;durP2;ratioP2;P2;SDS_P1;SDS_P2;PMS_P1;PMS_P2;Temp;Humidity;BMP_temperature;BMP_pressure;BME280_temperature;BME280_humidity;BME280_pressure;Samples;Min_cycle;Max_cycle;Signal;HPM_P1;HPM_P2
2022/02/22 00:00:07;;;;;;;;;;;;;;;2.83;80.87;96870.72;5074817;28;19924;-61
2022/02/22 00:02:37;;;;;;;;;;;;;;;2.80;80.07;96870.44;5075290;28;19928;-60
2022/02/22 00:05:03;;;;;;;;;;;;;;;2.89;79.91;96874.16;5074958;28;19994;-61
2022/02/22 00:07:29;;;;;;;;;;;;;;;2.86;79.67;96875.44;5075146;28;19935;-60
2022/02/22 00:09:55;;;;;;;;;;;;;;;2.83;79.70;96862.88;5072860;28;19960;-60
2022/02/22 00:12:22;;;;;;;;;;;;;;;2.91;80.10;96874.69;5056726;28;20027;-61
2022/02/22 00:14:48;;;;;;;;;;;;;;;2.88;80.02;96873.38;5070663;28;19929;-60
2022/02/22 00:17:13;;;;;;;;;;;;;;;2.91;79.54;96874.69;5053441;28;20356;-60
2022/02/22 00:19:39;;;;;;;;;;;;;;;2.91;79.56;96885.16;5054353;28;19978;-60
2022/02/22 00:22:05;;;;;;;;;;;;;;;2.85;80.09;96875.69;5053473;28;19929;-60
2022/02/22 00:24:30;;;;;;;;;;;;;;;2.86;79.61;96872.06;5054326;28;20019;-60
2022/02/22 00:26:56;;;;;;;;;;;;;;;2.90;79.26;96868.66;5054834;28;19929;-60
2022/02/22 00:29:23;;;;;;;;;;;;;;;3.02;79.34;96852.00;5053314;28;20071;-61
2022/02/22 00:31:48;;;;;;;;;;;;;;;2.96;79.20;96854.59;5054446;28;20370;-61
2022/02/22 00:34:15;;;;;;;;;;;;;;;2.94;78.92;96848.84;5053974;28;19933;-61
2022/02/22 00:36:41;;;;;;;;;;;;;;;2.88;78.93;96854.25;5052860;28;20501;-59
2022/02/22 00:39:07;;;;;;;;;;;;;;;2.90;79.76;96841.72;5054075;28;19925;-61
2022/02/22 00:41:33;;;;;;;;;;;;;;;2.91;79.23;96836.25;5052947;28;19936;-59
2022/02/22 00:43:58;;;;;;;;;;;;;;;2.81;79.39;96828.31;5052775;28;20023;-61
2022/02/22 00:46:24;;;;;;;;;;;;;;;2.91;79.56;96830.19;5054203;28;20366;-59
2022/02/22 00:48:50;;;;;;;;;;;;;;;2.88;79.71;96834.13;5054245;28;19928;-60
2022/02/22 00:51:15;;;;;;;;;;;;;;;2.81;80.06;96838.00;5054249;28;20473;-60
2022/02/22 00:53:41;;;;;;;;;;;;;;;2.77;79.56;96837.69;5055058;28;19935;-61
2022/02/22 00:56:06;;;;;;;;;;;;;;;2.80;79.95;96837.19;5053846;28;19936;-60
2022/02/22 00:58:32;;;;;;;;;;;;;;;2.83;79.55;96834.09;5053960;28;19967;-59
2022/02/22 01:00:57;;;;;;;;;;;;;;;2.88;79.43;96828.91;5053867;28;19967;-60
2022/02/22 01:03:23;;;;;;;;;;;;;;;2.84;79.44;96827.81;5051764;28;19925;-62
2022/02/22 01:05:48;;;;;;;;;;;;;;;2.85;79.76;96829.38;5053620;28;19928;-60
2022/02/22 01:08:14;;;;;;;;;;;;;;;2.94;80.77;96827.09;5053876;28;19982;-60
2022/02/22 01:10:39;;;;;;;;;;;;;;;2.99;79.31;96821.13;5052225;28;19963;-57
2022/02/22 01:13:05;;;;;;;;;;;;;;;2.96;79.48;96819.78;5072938;28;20287;-61
2022/02/22 01:15:31;;;;;;;;;;;;;;;2.98;79.45;96816.94;5073355;28;19924;-60
2022/02/22 01:17:56;;;;;;;;;;;;;;;3.00;79.18;96818.25;5072051;28;19924;-62
2022/02/22 01:20:22;;;;;;;;;;;;;;;2.94;79.35;96814.00;5072954;28;19924;-61
2022/02/22 01:22:52;;;;;;;;;;;;;;;2.84;78.99;96819.97;5072108;28;19924;-62
2022/02/22 01:25:18;;;;;;;;;;;;;;;2.88;79.04;96817.63;5055316;28;19924;-59
2022/02/22 01:27:43;;;;;;;;;;;;;;;2.91;79.58;96815.31;5073422;28;19928;-60
2022/02/22 01:30:09;;;;;;;;;;;;;;;2.91;79.24;96819.75;5072926;28;20373;-61
2022/02/22 01:32:34;;;;;;;;;;;;;;;2.98;79.15;96819.53;5073553;28;20397;-61
2022/02/22 01:35:00;;;;;;;;;;;;;;;3.00;79.16;96820.88;5073262;28;19924;-60
2022/02/22 01:37:25;;;;;;;;;;;;;;;3.05;78.71;96820.88;5071607;28;19935;-60
2022/02/22 01:39:51;;;;;;;;;;;;;;;3.01;78.14;96824.28;5055200;28;20278;-62
2022/02/22 01:42:16;;;;;;;;;;;;;;;3.06;78.29;96822.50;5073226;28;19929;-60
2022/02/22 01:44:45;;;;;;;;;;;;;;;3.04;78.56;96821.16;5072967;28;20015;-61
2022/02/22 01:47:12;;;;;;;;;;;;;;;3.10;78.34;96822.75;5073216;28;19936;-61
2022/02/22 01:49:38;;;;;;;;;;;;;;;3.06;78.16;96824.28;5068412;28;19936;-62
2022/02/22 01:52:04;;;;;;;;;;;;;;;3.06;78.77;96825.09;5053165;28;19933;-60
2022/02/22 01:54:30;;;;;;;;;;;;;;;3.10;78.38;96820.94;5052929;28;20511;-60
2022/02/22 01:56:55;;;;;;;;;;;;;;;3.11;78.15;96822.50;5052722;28;20318;-61
2022/02/22 01:59:22;;;;;;;;;;;;;;;3.01;78.32;96814.59;5052773;28;19948;-63
2022/02/22 02:01:47;;;;;;;;;;;;;;;2.92;78.70;96816.88;5051378;28;20290;-61
2022/02/22 02:04:13;;;;;;;;;;;;;;;3.02;78.20;96804.91;5052506;28;19932;-61
2022/02/22 02:06:38;;;;;;;;;;;;;;;2.98;78.51;96804.63;5052701;28;19932;-61
2022/02/22 02:09:07;;;;;;;;;;;;;;;2.98;78.58;96791.53;5057803;28;20017;-62
2022/02/22 02:11:42;;;;;;;;;;;;;;;3.02;78.38;96789.22;5072412;28;20286;-61
2022/02/22 02:14:08;;;;;;;;;;;;;;;3.02;78.62;96792.59;5072106;28;20015;-60
2022/02/22 02:16:34;;;;;;;;;;;;;;;3.02;78.43;96792.59;5071566;28;20030;-60
2022/02/22 02:18:59;;;;;;;;;;;;;;;3.06;77.95;96788.47;5070554;28;19956;-62
2022/02/22 02:21:25;;;;;;;;;;;;;;;3.07;78.37;96784.78;5072411;28;19928;-60
2022/02/22 02:23:51;;;;;;;;;;;;;;;2.95;78.22;96778.97;5071300;28;20393;-62
2022/02/22 02:26:16;;;;;;;;;;;;;;;2.85;78.82;96779.66;5070911;28;19928;-59
2022/02/22 02:28:42;;;;;;;;;;;;;;;2.91;78.74;96777.88;5070134;28;19928;-60
2022/02/22 02:31:07;;;;;;;;;;;;;;;2.89;78.82;96790.44;5072101;28;19928;-61
2022/02/22 02:33:33;;;;;;;;;;;;;;;2.88;78.87;96779.19;5072239;28;19924;-59
2022/02/22 02:35:58;;;;;;;;;;;;;;;2.92;78.59;96785.47;5072002;28;20402;-61
2022/02/22 02:38:24;;;;;;;;;;;;;;;2.94;78.37;96786.03;5071561;28;19928;-60
2022/02/22 02:40:50;;;;;;;;;;;;;;;2.97;78.65;96779.47;5070052;28;20020;-61
2022/02/22 02:43:15;;;;;;;;;;;;;;;2.94;78.68;96783.41;5071891;28;19967;-61
2022/02/22 02:45:41;;;;;;;;;;;;;;;3.01;78.42;96793.66;5071748;28;20463;-61
2022/02/22 02:48:06;;;;;;;;;;;;;;;3.11;77.94;96785.06;5060315;28;20378;-59
2022/02/22 02:50:32;;;;;;;;;;;;;;;3.06;78.60;96787.66;5051654;28;20437;-60
2022/02/22 02:52:57;;;;;;;;;;;;;;;3.12;78.05;96787.44;5051779;28;19924;-62
2022/02/22 02:55:23;;;;;;;;;;;;;;;3.08;78.29;96796.81;5050609;28;20301;-60
2022/02/22 02:57:48;;;;;;;;;;;;;;;3.07;77.96;96787.41;5051684;28;19931;-61
2022/02/22 03:00:14;;;;;;;;;;;;;;;3.12;78.32;96790.06;5051645;28;19929;-60
2022/02/22 03:10:46;;;;;;;;;;;;;;;2.98;78.19;96775.84;5051422;28;19931;-60
2022/02/22 03:13:12;;;;;;;;;;;;;;;2.90;78.77;96779.69;5051835;28;19931;-60
2022/02/22 03:15:37;;;;;;;;;;;;;;;2.98;78.63;96775.06;5051416;28;19932;-60
2022/02/22 03:18:03;;;;;;;;;;;;;;;2.93;78.64;96771.34;5051684;28;19931;-59
2022/02/22 03:20:29;;;;;;;;;;;;;;;2.93;78.90;96778.41;5051303;28;19947;-61
2022/02/22 03:22:54;;;;;;;;;;;;;;;2.92;78.85;96774.22;5051449;28;19928;-62
2022/02/22 03:25:20;;;;;;;;;;;;;;;2.90;79.00;96774.47;5051265;28;20416;-61
2022/02/22 03:27:45;;;;;;;;;;;;;;;2.92;79.17;96772.41;5054898;28;20019;-61
2022/02/22 03:30:11;;;;;;;;;;;;;;;2.92;78.60;96769.78;5055332;28;20027;-60
2022/02/22 03:32:36;;;;;;;;;;;;;;;2.93;79.30;96766.13;5064481;28;19935;-60
2022/02/22 03:35:03;;;;;;;;;;;;;;;2.89;79.43;96759.03;5074038;28;19928;-60
2022/02/22 03:37:28;;;;;;;;;;;;;;;2.87;79.29;96761.09;5056964;28;19981;-61
2022/02/22 03:39:54;;;;;;;;;;;;;;;2.92;79.58;96754.09;5073754;28;19924;-61
2022/02/22 03:42:20;;;;;;;;;;;;;;;2.96;79.34;96763.00;5074037;28;19940;-61
2022/02/22 03:44:45;;;;;;;;;;;;;;;2.96;79.25;96756.97;5075152;28;20378;-59
2022/02/22 03:47:11;;;;;;;;;;;;;;;2.84;80.09;96759.00;5075453;28;19928;-61
2022/02/22 03:49:36;;;;;;;;;;;;;;;2.87;79.72;96763.72;5060649;28;20295;-61
2022/02/22 03:52:02;;;;;;;;;;;;;;;2.89;80.05;96756.44;5065064;28;20308;-61
2022/02/22 03:54:28;;;;;;;;;;;;;;;2.89;80.01;96764.28;5074874;28;19946;-61
2022/02/22 03:56:53;;;;;;;;;;;;;;;2.92;79.98;96748.84;5074929;28;19959;-61
2022/02/22 03:59:19;;;;;;;;;;;;;;;2.95;79.84;96750.97;5074611;28;19925;-59
2022/02/22 04:01:45;;;;;;;;;;;;;;;2.87;80.25;96748.03;5059084;28;20300;-60
2022/02/22 04:04:11;;;;;;;;;;;;;;;2.89;80.67;96761.66;5054422;28;19925;-62
2022/02/22 04:06:37;;;;;;;;;;;;;;;2.95;80.40;96758.81;5067654;28;20289;-59
2022/02/22 04:09:02;;;;;;;;;;;;;;;3.06;79.94;96764.09;5074478;28;19925;-63
2022/02/22 04:11:28;;;;;;;;;;;;;;;3.07;79.85;96766.47;5062810;28;20313;-60
2022/02/22 04:13:53;;;;;;;;;;;;;;;3.04;80.24;96768.81;5054485;28;19929;-64
2022/02/22 04:16:19;;;;;;;;;;;;;;;3.00;80.21;96772.97;5054412;28;19997;-62
2022/02/22 04:18:44;;;;;;;;;;;;;;;3.03;80.25;96764.59;5054318;28;19928;-61
2022/02/22 04:21:10;;;;;;;;;;;;;;;3.10;79.74;96773.03;5053084;28;19929;-62
2022/02/22 04:23:36;;;;;;;;;;;;;;;3.11;79.77;96767.53;5054621;28;19977;-62
2022/02/22 04:26:01;;;;;;;;;;;;;;;3.11;80.02;96769.38;5054265;28;19929;-61
2022/02/22 04:28:27;;;;;;;;;;;;;;;3.14;79.80;96769.63;5052980;28;19932;-63
2022/02/22 04:30:52;;;;;;;;;;;;;;;3.12;80.35;96768.34;5065306;28;20021;-61
2022/02/22 04:33:18;;;;;;;;;;;;;;;3.15;79.91;96762.59;5074252;28;20400;-61
2022/02/22 04:35:43;;;;;;;;;;;;;;;3.12;80.66;96769.13;5074314;28;19925;-61
2022/02/22 04:38:09;;;;;;;;;;;;;;;3.10;79.83;96762.56;5071844;28;20010;-61
2022/02/22 04:40:34;;;;;;;;;;;;;;;3.03;80.33;96767.22;5052205;28;19935;-60
2022/02/22 04:43:00;;;;;;;;;;;;;;;2.99;80.47;96772.16;5053273;28;19924;-61
2022/02/22 04:45:26;;;;;;;;;;;;;;;2.98;80.83;96775.06;5054159;28;20410;-59
2022/02/22 04:47:52;;;;;;;;;;;;;;;2.88;81.19;96778.38;5054040;28;19924;-61
2022/02/22 04:50:19;;;;;;;;;;;;;;;2.84;81.14;96788.56;5053781;28;20024;-59
2022/02/22 04:52:44;;;;;;;;;;;;;;;2.87;81.23;96782.81;5053889;28;19968;-60
2022/02/22 04:55:10;;;;;;;;;;;;;;;2.89;80.86;96782.59;5053891;28;19964;-60
2022/02/22 04:57:36;;;;;;;;;;;;;;;2.88;81.32;96791.47;5053418;28;19933;-58
2022/02/22 05:00:03;;;;;;;;;;;;;;;2.90;81.14;96792.78;5052027;28;20382;-59
2022/02/22 05:02:29;;;;;;;;;;;;;;;2.99;81.04;96794.94;5053285;28;19971;-59
2022/02/22 05:04:55;;;;;;;;;;;;;;;2.99;80.43;96789.72;5053491;28;20401;-58
2022/02/22 05:07:20;;;;;;;;;;;;;;;3.04;80.56;96794.97;5054026;28;19929;-59
2022/02/22 05:09:46;;;;;;;;;;;;;;;3.00;79.96;96796.50;5053454;28;19932;-58
2022/02/22 05:12:12;;;;;;;;;;;;;;;2.96;79.81;96802.25;5054787;28;20032;-59
2022/02/22 05:14:38;;;;;;;;;;;;;;;3.01;79.89;96804.13;5051901;28;19932;-59
2022/02/22 05:17:03;;;;;;;;;;;;;;;3.05;79.63;96807.81;5053745;28;19929;-58
2022/02/22 05:19:29;;;;;;;;;;;;;;;3.14;79.62;96801.06;5053307;28;19925;-59
2022/02/22 05:21:55;;;;;;;;;;;;;;;3.21;78.94;96811.31;5054424;28;19939;-59
2022/02/22 05:24:20;;;;;;;;;;;;;;;3.19;78.54;96816.00;5053025;28;20312;-60
2022/02/22 05:26:46;;;;;;;;;;;;;;;3.23;78.67;96811.84;5052907;28;19935;-59
2022/02/22 05:29:11;;;;;;;;;;;;;;;3.23;77.79;96821.53;5051722;28;20019;-61
2022/02/22 05:31:37;;;;;;;;;;;;;;;3.25;78.08;96828.09;5053230;28;20027;-59
2022/02/22 05:34:02;;;;;;;;;;;;;;;3.24;77.58;96830.97;5052854;28;20031;-61
2022/02/22 05:36:28;;;;;;;;;;;;;;;3.25;78.39;96832.53;5052647;28;19935;-59
2022/02/22 05:38:53;;;;;;;;;;;;;;;3.28;78.06;96838.06;5053459;28;19925;-60
2022/02/22 05:41:19;;;;;;;;;;;;;;;3.20;78.34;96843.75;5057636;28;19928;-60
2022/02/22 05:43:45;;;;;;;;;;;;;;;3.26;78.12;96847.19;5072864;28;20018;-60
2022/02/22 05:46:11;;;;;;;;;;;;;;;3.28;78.21;96843.28;5073032;28;19925;-62
2022/02/22 05:48:36;;;;;;;;;;;;;;;3.28;77.71;96847.75;5072464;28;20436;-63
2022/02/22 05:51:02;;;;;;;;;;;;;;;3.30;79.24;96864.00;5072613;28;19955;-61
2022/02/22 05:53:28;;;;;;;;;;;;;;;3.21;78.74;96861.06;5072608;28;20019;-64
2022/02/22 05:55:53;;;;;;;;;;;;;;;3.09;79.32;96860.44;5072492;28;19971;-62
2022/02/22 05:58:19;;;;;;;;;;;;;;;3.11;79.32;96868.81;5072631;28;20408;-63
2022/02/22 06:00:44;;;;;;;;;;;;;;;3.02;78.22;96865.09;5070284;28;19928;-59
2022/02/22 06:03:10;;;;;;;;;;;;;;;3.01;78.41;96866.16;5072552;28;19924;-60
2022/02/22 06:05:36;;;;;;;;;;;;;;;3.08;78.72;96875.34;5072391;28;19924;-59
2022/02/22 06:08:02;;;;;;;;;;;;;;;3.09;78.39;96876.94;5072347;28;19928;-61
2022/02/22 06:10:28;;;;;;;;;;;;;;;3.09;77.79;96873.50;5057862;28;19932;-58
2022/02/22 06:12:54;;;;;;;;;;;;;;;3.19;77.91;96881.47;5052234;28;19998;-58
2022/02/22 06:15:20;;;;;;;;;;;;;;;3.10;77.11;96881.13;5070503;28;19990;-59
2022/02/22 06:17:46;;;;;;;;;;;;;;;3.10;77.22;96883.75;5072187;28;19980;-59
2022/02/22 06:20:13;;;;;;;;;;;;;;;3.14;77.91;96904.97;5028360;28;19924;-59
2022/02/22 06:22:40;;;;;;;;;;;;;;;3.16;78.36;96908.91;5052696;28;19933;-59
2022/02/22 06:25:08;;;;;;;;;;;;;;;3.17;77.67;96899.25;5034259;28;20073;-60
2022/02/22 06:27:43;;;;;;;;;;;;;;;3.20;77.12;96911.81;5050838;28;19936;-59
2022/02/22 06:30:09;;;;;;;;;;;;;;;3.14;77.18;96910.22;5052102;28;19932;-57
2022/02/22 06:32:35;;;;;;;;;;;;;;;3.15;77.54;96909.97;5052278;28;19932;-59
2022/02/22 06:35:00;;;;;;;;;;;;;;;3.24;77.48;96914.75;5052023;28;20297;-57
2022/02/22 06:37:29;;;;;;;;;;;;;;;3.24;77.28;96930.47;5033710;28;20290;-60
2022/02/22 06:39:55;;;;;;;;;;;;;;;3.28;76.39;96928.91;5052429;28;19924;-60
2022/02/22 06:42:20;;;;;;;;;;;;;;;3.17;77.21;96926.19;5044263;28;19936;-58
2022/02/22 06:44:46;;;;;;;;;;;;;;;3.13;76.59;96946.06;5052224;28;20012;-59
2022/02/22 06:47:11;;;;;;;;;;;;;;;3.21;77.02;96939.59;5069506;28;19925;-59
2022/02/22 06:49:37;;;;;;;;;;;;;;;3.22;76.64;96941.16;5067796;28;20386;-58
2022/02/22 06:52:03;;;;;;;;;;;;;;;3.26;76.31;96944.06;5069845;28;20393;-59
2022/02/22 06:54:28;;;;;;;;;;;;;;;3.35;76.71;96932.91;5070316;28;20011;-60
2022/02/22 06:56:54;;;;;;;;;;;;;;;3.44;75.40;96935.81;5068955;28;20488;-60
2022/02/22 06:59:19;;;;;;;;;;;;;;;3.51;75.76;96933.78;5068967;28;19970;-62
2022/02/22 07:01:45;;;;;;;;;;;;;;;3.51;75.86;96930.38;5067651;28;19997;-61
2022/02/22 07:04:10;;;;;;;;;;;;;;;3.63;75.70;96944.09;5067552;28;20373;-60
2022/02/22 07:06:36;;;;;;;;;;;;;;;3.72;75.82;96942.56;5066962;28;20043;-57
2022/02/22 07:09:01;;;;;;;;;;;;;;;3.75;75.12;96951.75;5068713;28;19966;-60
2022/02/22 07:11:27;;;;;;;;;;;;;;;3.77;75.29;96950.47;5068819;28;19976;-60
2022/02/22 07:13:52;;;;;;;;;;;;;;;3.89;74.36;96947.66;5069190;28;20336;-59
2022/02/22 07:16:18;;;;;;;;;;;;;;;3.92;73.79;96952.38;5065692;28;19935;-62
2022/02/22 07:18:43;;;;;;;;;;;;;;;3.80;74.47;96957.81;5069073;28;19924;-61
2022/02/22 07:21:09;;;;;;;;;;;;;;;3.76;74.44;96959.34;5059535;28;20325;-61
2022/02/22 07:23:35;;;;;;;;;;;;;;;3.87;75.14;96965.47;5058947;28;19935;-60
2022/02/22 07:26:00;;;;;;;;;;;;;;;4.00;74.45;96964.22;5066718;28;19936;-60
2022/02/22 07:28:26;;;;;;;;;;;;;;;4.05;73.56;96964.25;5063520;28;19925;-60
2022/02/22 07:30:51;;;;;;;;;;;;;;;4.03;73.29;96969.75;5046530;28;20536;-59
2022/02/22 07:33:17;;;;;;;;;;;;;;;3.98;74.11;96972.34;5049420;28;19932;-59
2022/02/22 07:35:42;;;;;;;;;;;;;;;4.08;74.66;96975.00;5048662;28;19936;-60
2022/02/22 07:38:08;;;;;;;;;;;;;;;4.17;72.48;96969.28;5049745;28;20385;-60
2022/02/22 07:40:33;;;;;;;;;;;;;;;4.36;73.50;96964.41;5047924;28;19947;-61
2022/02/22 07:43:00;;;;;;;;;;;;;;;4.31;72.28;96973.81;5047596;28;20424;-61
2022/02/22 07:45:25;;;;;;;;;;;;;;;4.44;72.45;96963.88;5047769;28;19936;-61
2022/02/22 07:47:51;;;;;;;;;;;;;;;4.40;71.52;96962.84;5046516;28;19925;-61
2022/02/22 07:50:17;;;;;;;;;;;;;;;4.54;71.67;96977.84;5047814;28;19968;-61
2022/02/22 07:52:42;;;;;;;;;;;;;;;4.47;72.40;96977.31;5048642;28;19971;-60
2022/02/22 07:55:08;;;;;;;;;;;;;;;4.50;72.50;96987.28;5049016;28;19976;-60
2022/02/22 07:57:34;;;;;;;;;;;;;;;4.64;71.12;96984.16;5050017;28;20193;-60
2022/02/22 07:59:59;;;;;;;;;;;;;;;4.55;71.11;96981.25;5052197;28;19929;-61
2022/02/22 08:02:25;;;;;;;;;;;;;;;4.76;70.68;96990.78;5048975;28;19989;-61
2022/02/22 08:04:50;;;;;;;;;;;;;;;4.88;70.54;96989.75;5051594;28;20007;-61
2022/02/22 08:07:20;;;;;;;;;;;;;;;5.01;69.75;96992.66;5045769;28;20031;-58
2022/02/22 08:09:46;;;;;;;;;;;;;;;5.11;68.78;96996.34;5060556;28;19948;-61
2022/02/22 08:12:11;;;;;;;;;;;;;;;5.22;67.95;97001.34;5066622;28;20370;-60
2022/02/22 08:14:37;;;;;;;;;;;;;;;5.33;67.44;97009.28;5069152;28;19970;-61
2022/02/22 08:17:03;;;;;;;;;;;;;;;5.33;67.34;97006.63;5068503;28;19958;-62
2022/02/22 08:19:29;;;;;;;;;;;;;;;5.23;67.41;97005.59;5070539;28;20027;-60
2022/02/22 08:21:55;;;;;;;;;;;;;;;5.33;67.77;97014.53;5071123;28;20031;-61
2022/02/22 08:24:23;;;;;;;;;;;;;;;5.43;67.01;97011.88;5067887;28;19970;-61
2022/02/22 08:26:49;;;;;;;;;;;;;;;5.52;66.29;97009.53;5071437;28;19928;-60
2022/02/22 08:29:15;;;;;;;;;;;;;;;5.59;66.69;97004.78;5070349;28;19935;-60
2022/02/22 08:31:41;;;;;;;;;;;;;;;5.54;66.28;97000.34;5020281;28;19982;-61
2022/02/22 08:34:07;;;;;;;;;;;;;;;5.51;67.02;97008.75;5071683;28;20351;-61
2022/02/22 08:36:33;;;;;;;;;;;;;;;5.54;66.25;97007.44;5070695;28;20445;-61
2022/02/22 08:39:01;;;;;;;;;;;;;;;5.70;66.58;97007.16;5068896;28;19977;-60
2022/02/22 08:41:27;;;;;;;;;;;;;;;5.64;66.17;97005.56;5069396;28;19929;-59
2022/02/22 08:43:52;;;;;;;;;;;;;;;5.78;65.96;97005.06;5067336;28;19924;-59
2022/02/22 08:46:18;;;;;;;;;;;;;;;5.65;66.03;97004.53;5067756;28;20391;-58
2022/02/22 08:48:44;;;;;;;;;;;;;;;5.64;65.50;97007.41;5070399;28;20022;-60
2022/02/22 08:51:09;;;;;;;;;;;;;;;5.82;65.95;97011.34;5070629;28;20032;-58
2022/02/22 08:53:35;;;;;;;;;;;;;;;5.90;64.92;97018.72;5069069;28;20267;-59
2022/02/22 08:56:02;;;;;;;;;;;;;;;5.96;64.56;97033.47;5069263;28;19932;-62
2022/02/22 08:58:28;;;;;;;;;;;;;;;6.00;64.84;97037.16;5070618;28;19967;-60
2022/02/22 09:00:53;;;;;;;;;;;;;;;6.05;64.49;97041.59;5069571;28;20428;-61
2022/02/22 09:03:19;;;;;;;;;;;;;;;5.84;65.15;97044.22;5069079;28;20326;-59
2022/02/22 09:05:44;;;;;;;;;;;;;;;5.81;64.21;97047.38;5068649;28;20396;-60
2022/02/22 09:08:10;;;;;;;;;;;;;;;5.86;65.32;97055.28;5069376;28;19931;-60
2022/02/22 09:10:35;;;;;;;;;;;;;;;5.88;65.20;97047.91;5069283;28;19929;-61
2022/02/22 09:13:01;;;;;;;;;;;;;;;5.99;65.27;97051.34;5066412;28;19966;-60
2022/02/22 09:15:31;;;;;;;;;;;;;;;6.18;63.66;97051.59;5067017;28;19981;-60
2022/02/22 09:17:57;;;;;;;;;;;;;;;6.29;64.06;97049.72;5068909;28;20202;-59
2022/02/22 09:20:23;;;;;;;;;;;;;;;6.32;63.01;97039.47;5066693;28;19924;-61
2022/02/22 09:22:48;;;;;;;;;;;;;;;6.04;63.41;97040.81;5067972;28;19947;-60
2022/02/22 09:25:15;;;;;;;;;;;;;;;5.98;63.70;97036.63;5066476;28;20338;-61
2022/02/22 09:27:42;;;;;;;;;;;;;;;5.99;64.16;97045.28;5068777;28;19967;-59
2022/02/22 09:30:09;;;;;;;;;;;;;;;5.77;64.68;97045.56;5068134;28;19924;-59
2022/02/22 09:32:34;;;;;;;;;;;;;;;5.76;64.49;97044.75;5069271;28;20557;-59
2022/02/22 09:35:00;;;;;;;;;;;;;;;5.80;64.79;97042.41;5068268;28;20214;-58
2022/02/22 09:37:26;;;;;;;;;;;;;;;5.75;64.15;97031.88;5069066;28;19997;-60
2022/02/22 09:39:51;;;;;;;;;;;;;;;5.83;63.43;97037.41;5068762;28;19924;-59
2022/02/22 09:42:17;;;;;;;;;;;;;;;6.08;63.44;97055.00;5069602;28;19932;-59
2022/02/22 09:44:42;;;;;;;;;;;;;;;6.23;63.13;97061.31;5069369;28;20114;-61
2022/02/22 09:47:08;;;;;;;;;;;;;;;6.35;62.21;97072.31;5068802;28;19967;-60
2022/02/22 09:49:34;;;;;;;;;;;;;;;6.40;62.21;97056.53;5068482;28;20213;-59
2022/02/22 09:52:00;;;;;;;;;;;;;;;6.44;61.10;97073.38;5069846;28;19929;-60
2022/02/22 09:54:26;;;;;;;;;;;;;;;6.42;61.51;97077.34;5068990;28;19924;-62
2022/02/22 09:56:52;;;;;;;;;;;;;;;6.59;61.24;97080.44;5068733;28;19936;-60
2022/02/22 09:59:18;;;;;;;;;;;;;;;6.42;60.73;97070.22;5050908;28;19931;-61
2022/02/22 10:01:44;;;;;;;;;;;;;;;6.51;60.10;97081.78;5048183;28;20390;-62
2022/02/22 10:04:10;;;;;;;;;;;;;;;6.74;59.84;97080.41;5046432;28;20015;-60
2022/02/22 10:06:35;;;;;;;;;;;;;;;6.76;60.04;97075.63;5048914;28;20057;-60
2022/02/22 10:09:02;;;;;;;;;;;;;;;6.86;59.55;97071.41;5046789;28;19925;-60
2022/02/22 10:11:27;;;;;;;;;;;;;;;6.77;59.64;97071.19;5048842;28;19928;-61
2022/02/22 10:13:53;;;;;;;;;;;;;;;6.67;59.51;97084.34;5048765;28;19932;-59
2022/02/22 10:16:18;;;;;;;;;;;;;;;6.77;59.59;97084.34;5049392;28;19958;-61
2022/02/22 10:18:45;;;;;;;;;;;;;;;6.86;58.43;97084.56;5066808;28;19931;-61
2022/02/22 10:21:10;;;;;;;;;;;;;;;7.12;59.34;97083.41;5049640;28;19934;-59
2022/02/22 10:23:36;;;;;;;;;;;;;;;7.20;57.75;97079.41;5069244;28;20317;-62
2022/02/22 10:26:01;;;;;;;;;;;;;;;7.11;57.98;97079.19;5066444;28;20180;-61
2022/02/22 10:28:27;;;;;;;;;;;;;;;7.11;58.17;97086.28;5069339;28;20407;-63
2022/02/22 10:30:53;;;;;;;;;;;;;;;7.06;57.75;97073.94;5067379;28;19936;-60
2022/02/22 10:33:19;;;;;;;;;;;;;;;7.12;58.15;97077.31;5068063;28;20416;-59
2022/02/22 10:35:46;;;;;;;;;;;;;;;7.02;57.14;97072.91;5057340;28;19935;-61
2022/02/22 10:38:15;;;;;;;;;;;;;;;6.85;57.07;97072.44;5059767;28;20023;-58
2022/02/22 10:40:42;;;;;;;;;;;;;;;6.72;57.01;97068.56;5067664;28;19932;-60
2022/02/22 10:43:08;;;;;;;;;;;;;;;6.77;57.14;97063.28;5065068;28;19969;-60
2022/02/22 10:45:34;;;;;;;;;;;;;;;6.69;57.11;97055.94;5032633;28;19931;-60
2022/02/22 10:47:59;;;;;;;;;;;;;;;6.62;57.43;97055.41;5068404;28;19924;-59
2022/02/22 10:50:25;;;;;;;;;;;;;;;6.52;57.44;97046.50;5044805;28;20229;-59
2022/02/22 10:52:51;;;;;;;;;;;;;;;6.52;57.57;97053.59;5043855;28;19924;-60
2022/02/22 10:55:17;;;;;;;;;;;;;;;6.39;58.21;97048.91;5046130;28;20401;-60
2022/02/22 10:57:42;;;;;;;;;;;;;;;6.24;58.93;97049.75;5046030;28;20353;-61
2022/02/22 11:00:08;;;;;;;;;;;;;;;6.22;58.47;97049.22;5044758;28;19931;-61
2022/02/22 11:02:34;;;;;;;;;;;;;;;6.06;58.98;97040.53;5046539;28;20490;-60
2022/02/22 11:05:01;;;;;;;;;;;;;;;6.03;58.52;97043.69;5054194;28;19932;-60
2022/02/22 11:07:27;;;;;;;;;;;;;;;5.97;59.04;97052.66;5048015;28;19929;-59
2022/02/22 11:09:52;;;;;;;;;;;;;;;5.96;58.64;97040.56;5045822;28;19924;-61
2022/02/22 11:12:22;;;;;;;;;;;;;;;5.95;58.21;97042.41;5047114;28;19989;-59
2022/02/22 11:14:48;;;;;;;;;;;;;;;5.97;59.24;97034.25;5049035;28;20325;-60
2022/02/22 11:17:14;;;;;;;;;;;;;;;5.82;59.95;97037.66;5069156;28;19928;-58
2022/02/22 11:19:40;;;;;;;;;;;;;;;5.63;60.05;97042.66;5068734;28;19975;-59
2022/02/22 11:22:10;;;;;;;;;;;;;;;5.60;60.01;97038.69;5067507;28;20101;-60
2022/02/22 11:24:44;;;;;;;;;;;;;;;5.51;60.81;97028.97;5067931;28;19994;-60
2022/02/22 11:27:10;;;;;;;;;;;;;;;5.53;60.37;97032.13;5068468;28;19928;-60
2022/02/22 11:29:36;;;;;;;;;;;;;;;5.52;60.37;97038.44;5069602;28;20731;-60
2022/02/22 11:32:06;;;;;;;;;;;;;;;5.53;60.52;97038.19;5050245;28;19949;-60
2022/02/22 11:34:33;;;;;;;;;;;;;;;5.45;60.76;97033.44;5049241;28;20023;-59
2022/02/22 11:37:02;;;;;;;;;;;;;;;5.46;60.84;97030.53;5048739;28;19966;-60
2022/02/22 11:39:27;;;;;;;;;;;;;;;5.52;59.88;97033.19;5057982;28;20304;-60
2022/02/22 11:41:53;;;;;;;;;;;;;;;5.63;59.97;97038.19;5052629;28;19929;-60
2022/02/22 11:44:21;;;;;;;;;;;;;;;5.80;59.77;97035.28;5049684;28;19931;-62
2022/02/22 11:46:47;;;;;;;;;;;;;;;5.85;59.16;97042.38;5058614;28;20071;-60
2022/02/22 11:49:45;;;;;;;;;;;;;;;5.89;58.87;97028.44;5071218;28;20571;-62
2022/02/22 11:52:13;;;;;;;;;;;;;;;5.95;58.96;97033.75;5033232;28;20023;-60
2022/02/22 11:54:39;;;;;;;;;;;;;;;5.92;58.38;97027.91;5018840;28;19936;-60
2022/02/22 11:57:05;;;;;;;;;;;;;;;5.72;58.68;97024.50;5053050;28;20118;-61
2022/02/22 11:59:31;;;;;;;;;;;;;;;5.65;58.66;97032.66;5052655;28;20416;-60
2022/02/22 12:01:57;;;;;;;;;;;;;;;5.76;59.49;97023.72;5052422;28;20006;-60
2022/02/22 12:04:27;;;;;;;;;;;;;;;5.82;58.67;97021.88;5053123;28;20404;-60
2022/02/22 12:06:55;;;;;;;;;;;;;;;5.74;57.99;97023.22;5050518;28;19935;-59
2022/02/22 12:09:31;;;;;;;;;;;;;;;5.75;58.57;97024.78;5051170;28;20457;-61
2022/02/22 12:12:09;;;;;;;;;;;;;;;5.74;58.31;97004.03;5050216;28;19929;-60
2022/02/22 12:14:36;;;;;;;;;;;;;;;5.69;58.76;97004.81;5050625;28;19939;-60
2022/02/22 12:17:08;;;;;;;;;;;;;;;5.75;57.67;97005.59;5055857;28;19991;-60
2022/02/22 12:19:34;;;;;;;;;;;;;;;5.70;58.29;97006.38;5060889;28;20051;-59
2022/02/22 12:22:00;;;;;;;;;;;;;;;5.73;58.65;97002.44;5062939;28;20054;-59
2022/02/22 12:24:26;;;;;;;;;;;;;;;5.68;58.52;97013.75;5067593;28;20362;-60
2022/02/22 12:26:52;;;;;;;;;;;;;;;5.48;58.37;97011.91;5070890;28;19932;-60
2022/02/22 12:29:18;;;;;;;;;;;;;;;5.43;58.63;97002.16;5066812;28;19924;-60
2022/02/22 12:31:44;;;;;;;;;;;;;;;5.39;58.52;96995.88;5050574;28;20127;-58
2022/02/22 12:34:10;;;;;;;;;;;;;;;5.36;58.61;97006.91;5072086;28;19931;-60
2022/02/22 12:36:37;;;;;;;;;;;;;;;5.35;57.98;97005.31;5065804;28;19929;-59
2022/02/22 12:39:04;;;;;;;;;;;;;;;5.37;58.10;97011.09;5050128;28;19925;-59
2022/02/22 12:41:33;;;;;;;;;;;;;;;5.38;57.90;97004.00;5050124;28;19936;-60
2022/02/22 12:43:59;;;;;;;;;;;;;;;5.41;58.88;96995.59;5053208;28;20366;-61
2022/02/22 12:46:24;;;;;;;;;;;;;;;5.42;57.92;96997.19;5051945;28;19976;-61
2022/02/22 12:48:51;;;;;;;;;;;;;;;5.35;58.90;96999.25;5051859;28;19977;-62
2022/02/22 12:51:34;;;;;;;;;;;;;;;5.35;58.57;97009.78;5055240;28;20066;-61
2022/02/22 12:54:00;;;;;;;;;;;;;;;5.34;58.54;97008.22;5031084;28;19991;-63
2022/02/22 12:56:30;;;;;;;;;;;;;;;5.40;58.39;96999.28;5049982;28;20412;-62
2022/02/22 12:58:56;;;;;;;;;;;;;;;5.41;58.04;96996.41;5047891;28;19928;-61